createdAt,value
2023-01-07T00:01:45.011Z,100471.97
2023-01-07T00:04:17.168Z,100469.75
2023-01-07T00:06:47.460Z,100474.44
2023-01-07T00:09:17.816Z,100463.78
2023-01-07T00:11:46.580Z,100475.59
2023-01-07T00:14:16.241Z,100480.16
2023-01-07T00:16:45.375Z,100488.28
2023-01-07T00:19:17.158Z,100496.84
2023-01-07T00:21:46.181Z,100490.25
2023-01-07T00:24:17.499Z,100484.63
2023-01-07T00:26:47.408Z,100492.03
2023-01-07T00:29:17.189Z,100496.72
2023-01-07T00:31:45.975Z,100510.16
2023-01-07T00:34:16.955Z,100504.09
2023-01-07T00:36:47.255Z,100496.63
2023-01-07T00:39:18.032Z,100505.50
2023-01-07T00:42:01.550Z,100512.19
2023-01-07T00:44:30.675Z,100509.97
2023-01-07T00:47:00.008Z,100509.72
2023-01-07T00:49:30.763Z,100503.53
2023-01-07T00:51:59.948Z,100489.00
2023-01-07T00:54:29.062Z,100489.53
2023-01-07T00:56:58.178Z,100504.88
2023-01-07T00:59:28.159Z,100508.16
2023-01-07T01:01:56.991Z,100519.63
2023-01-07T01:04:26.916Z,100516.34
2023-01-07T01:06:57.472Z,100527.53
2023-01-07T01:09:26.785Z,100535.31
2023-01-07T01:11:55.883Z,100527.69
2023-01-07T01:14:25.559Z,100535.53
2023-01-07T01:16:54.236Z,100531.06
2023-01-07T01:19:23.273Z,100532.00
2023-01-07T01:21:52.260Z,100526.75
2023-01-07T01:24:22.734Z,100525.19
2023-01-07T01:26:51.665Z,100532.13
2023-01-07T01:29:20.840Z,100523.16
2023-01-07T01:31:50.319Z,100529.03
2023-01-07T01:34:19.722Z,100529.31
2023-01-07T01:36:48.934Z,100527.41
2023-01-07T01:39:20.657Z,100530.94
2023-01-07T01:41:51.135Z,100535.22
2023-01-07T01:44:38.810Z,100534.03
2023-01-07T01:47:16.669Z,100539.56
2023-01-07T01:49:47.851Z,100537.88
2023-01-07T01:52:19.191Z,100538.38
2023-01-07T01:54:51.552Z,100537.53
2023-01-07T01:57:23.284Z,100535.59
2023-01-07T01:59:56.215Z,100543.69
2023-01-07T02:02:27.736Z,100546.56
2023-01-07T02:04:56.995Z,100548.03
2023-01-07T02:07:26.495Z,100543.72
2023-01-07T02:10:01.676Z,100543.88
2023-01-07T02:12:45.295Z,100542.69
2023-01-07T02:15:20.121Z,100541.75
2023-01-07T02:18:03.456Z,100540.41
2023-01-07T02:20:48.288Z,100529.72
2023-01-07T02:23:56.491Z,100530.97
2023-01-07T02:27:12.330Z,100531.50
2023-01-07T02:30:21.209Z,100533.72
2023-01-07T02:33:22.004Z,100536.38
2023-01-07T02:36:08.149Z,100534.34
2023-01-07T02:38:45.167Z,100535.91
2023-01-07T02:41:19.488Z,100531.03
2023-01-07T02:43:55.965Z,100528.00
2023-01-07T02:46:31.221Z,100539.78
2023-01-07T02:49:02.647Z,100534.75
2023-01-07T02:51:35.670Z,100534.44
2023-01-07T02:54:05.380Z,100533.88
2023-01-07T02:56:43.648Z,100533.72
2023-01-07T02:59:37.935Z,100533.78
2023-01-07T03:02:25.465Z,100530.91
2023-01-07T03:05:04.651Z,100539.78
2023-01-07T03:07:37.655Z,100536.16
2023-01-07T03:10:12.742Z,100540.53
2023-01-07T03:12:44.941Z,100536.28
2023-01-07T03:15:16.939Z,100533.06
2023-01-07T03:17:50.240Z,100535.09
2023-01-07T03:20:22.135Z,100538.69
2023-01-07T03:22:51.413Z,100546.59
2023-01-07T03:25:20.821Z,100545.03
2023-01-07T03:27:50.714Z,100544.22
2023-01-07T03:30:21.196Z,100549.22
2023-01-07T03:32:54.158Z,100542.72
2023-01-07T03:35:24.984Z,100545.94
2023-01-07T03:37:54.816Z,100543.50
2023-01-07T03:40:23.944Z,100545.22
2023-01-07T03:42:51.903Z,100546.31
2023-01-07T03:45:25.915Z,100543.13
2023-01-07T03:47:58.469Z,100544.19
2023-01-07T03:50:35.324Z,100539.94
2023-01-07T03:53:04.626Z,100538.94
2023-01-07T03:55:36.359Z,100541.78
2023-01-07T03:58:05.791Z,100540.91
2023-01-07T04:00:34.975Z,100541.34
2023-01-07T04:03:14.319Z,100540.34
2023-01-07T04:05:49.177Z,100553.81
2023-01-07T04:08:20.089Z,100544.88
2023-01-07T04:10:48.778Z,100552.22
2023-01-07T04:13:19.719Z,100551.63
2023-01-07T04:15:51.144Z,100550.91
2023-01-07T04:18:20.078Z,100549.50
2023-01-07T04:20:50.679Z,100539.56
2023-01-07T04:23:20.161Z,100539.72
2023-01-07T04:25:51.661Z,100541.31
2023-01-07T04:28:24.492Z,100543.44
2023-01-07T04:30:53.754Z,100536.06
2023-01-07T04:33:24.118Z,100542.94
2023-01-07T04:35:54.551Z,100545.41
2023-01-07T04:38:24.825Z,100541.72
2023-01-07T04:40:55.663Z,100543.66
2023-01-07T04:43:25.185Z,100542.94
2023-01-07T04:45:54.160Z,100547.91
2023-01-07T04:48:23.450Z,100544.47
2023-01-07T04:50:57.145Z,100541.06
2023-01-07T04:53:26.272Z,100545.72
2023-01-07T04:55:55.185Z,100536.19
2023-01-07T04:58:24.724Z,100536.47
2023-01-07T05:00:57.668Z,100551.53
2023-01-07T05:03:28.195Z,100557.94
2023-01-07T05:05:59.311Z,100561.22
2023-01-07T05:08:29.228Z,100561.53
2023-01-07T05:10:58.415Z,100562.41
2023-01-07T05:13:27.013Z,100563.34
2023-01-07T05:15:55.957Z,100570.53
2023-01-07T05:18:25.528Z,100570.44
2023-01-07T05:20:54.953Z,100568.44
2023-01-07T05:23:25.421Z,100581.53
2023-01-07T05:25:54.824Z,100576.91
2023-01-07T05:28:23.982Z,100585.06
2023-01-07T05:30:53.070Z,100581.88
2023-01-07T05:33:22.381Z,100584.19
2023-01-07T05:35:51.740Z,100589.28
2023-01-07T05:38:20.805Z,100595.28
2023-01-07T05:40:51.148Z,100593.56
2023-01-07T05:43:24.548Z,100588.22
2023-01-07T05:45:53.599Z,100602.44
2023-01-07T05:48:22.560Z,100594.31
2023-01-07T05:50:51.651Z,100597.66
2023-01-07T05:53:20.569Z,100598.53
2023-01-07T05:55:50.685Z,100594.16
2023-01-07T05:58:19.684Z,100604.09
2023-01-07T06:00:48.925Z,100596.53
2023-01-07T06:03:18.038Z,100590.06
2023-01-07T06:05:47.013Z,100587.34
2023-01-07T06:08:16.323Z,100587.78
2023-01-07T06:10:45.621Z,100592.28
2023-01-07T06:13:16.102Z,100596.25
2023-01-07T06:15:45.209Z,100602.94
2023-01-07T06:18:14.159Z,100604.28
2023-01-07T06:20:43.169Z,100602.19
2023-01-07T06:23:12.139Z,100611.41
2023-01-07T06:25:40.779Z,100612.22
2023-01-07T06:28:09.832Z,100610.00
2023-01-07T06:30:40.318Z,100612.44
2023-01-07T06:33:09.282Z,100625.78
2023-01-07T06:35:38.173Z,100621.22
2023-01-07T06:38:07.148Z,100630.63
2023-01-07T06:40:35.945Z,100627.53
2023-01-07T06:43:04.918Z,100632.25
2023-01-07T06:45:33.856Z,100631.41
2023-01-07T06:48:04.288Z,100633.31
2023-01-07T06:50:33.406Z,100639.22
2023-01-07T06:53:02.337Z,100641.78
2023-01-07T06:55:31.017Z,100648.16
2023-01-07T06:58:00.049Z,100643.22
2023-01-07T07:00:29.088Z,100653.81
2023-01-07T07:02:58.094Z,100655.38
2023-01-07T07:05:29.136Z,100658.03
2023-01-07T07:07:57.766Z,100654.50
2023-01-07T07:10:26.732Z,100665.66
2023-01-07T07:12:55.781Z,100667.22
2023-01-07T07:15:24.779Z,100660.00
2023-01-07T07:17:53.807Z,100667.81
2023-01-07T07:20:22.781Z,100675.19
2023-01-07T07:22:52.957Z,100669.06
2023-01-07T07:25:22.417Z,100672.44
2023-01-07T07:27:51.345Z,100671.47
2023-01-07T07:30:20.668Z,100671.34
2023-01-07T07:32:49.612Z,100671.28
2023-01-07T07:35:18.885Z,100666.47
2023-01-07T07:37:47.504Z,100669.34
2023-01-07T07:40:18.210Z,100669.94
2023-01-07T07:43:11.713Z,100668.94
2023-01-07T07:45:36.243Z,100681.78
2023-01-07T07:48:07.135Z,100676.22
2023-01-07T07:50:36.726Z,100679.13
2023-01-07T07:53:10.034Z,100676.03
2023-01-07T07:55:40.989Z,100674.38
2023-01-07T07:58:09.983Z,100681.97
2023-01-07T08:00:38.994Z,100678.63
2023-01-07T08:03:08.295Z,100681.38
2023-01-07T08:05:37.329Z,100690.16
2023-01-07T08:08:08.517Z,100695.47
2023-01-07T08:10:37.202Z,100691.56
2023-01-07T08:13:07.624Z,100691.38
2023-01-07T08:15:36.594Z,100695.69
2023-01-07T08:18:07.075Z,100691.47
2023-01-07T08:20:38.183Z,100697.06
2023-01-07T08:23:08.384Z,100687.69
2023-01-07T08:25:37.120Z,100680.25
2023-01-07T08:28:07.795Z,100690.84
2023-01-07T08:30:36.819Z,100690.25
2023-01-07T08:33:06.671Z,100678.28
2023-01-07T08:35:35.763Z,100678.34
2023-01-07T08:38:05.808Z,100677.81
2023-01-07T08:40:34.778Z,100678.78
2023-01-07T08:43:05.219Z,100682.00
2023-01-07T08:45:35.725Z,100686.84
2023-01-07T08:48:04.824Z,100685.38
2023-01-07T08:50:34.510Z,100692.41
2023-01-07T08:53:03.433Z,100692.38
2023-01-07T08:55:32.041Z,100694.06
2023-01-07T08:58:01.063Z,100701.69
2023-01-07T09:00:30.141Z,100694.09
2023-01-07T09:03:00.648Z,100703.75
2023-01-07T09:05:29.673Z,100693.16
2023-01-07T09:07:58.747Z,100696.81
2023-01-07T09:10:27.377Z,100696.00
2023-01-07T09:12:56.334Z,100696.59
2023-01-07T09:15:25.371Z,100700.19
2023-01-07T09:17:55.378Z,100699.50
2023-01-07T09:20:25.716Z,100704.66
2023-01-07T09:22:54.301Z,100698.22
2023-01-07T09:25:23.360Z,100691.56
2023-01-07T09:27:52.361Z,100695.97
2023-01-07T09:30:21.355Z,100698.94
2023-01-07T09:32:50.311Z,100697.81
2023-01-07T09:35:19.467Z,100691.84
2023-01-07T09:37:49.582Z,100703.22
2023-01-07T09:40:23.999Z,100702.94
2023-01-07T09:42:58.009Z,100697.03
2023-01-07T09:45:28.764Z,100693.88
2023-01-07T09:47:59.230Z,100697.34
2023-01-07T09:50:47.273Z,100696.22
2023-01-07T09:53:20.561Z,100702.78
2023-01-07T09:56:10.649Z,100705.38
2023-01-07T09:58:43.561Z,100701.03
2023-01-07T10:01:22.709Z,100703.03
2023-01-07T10:03:59.588Z,100702.63
2023-01-07T10:06:42.969Z,100696.31
2023-01-07T10:09:20.817Z,100696.75
2023-01-07T10:11:57.745Z,100694.19
2023-01-07T10:14:44.624Z,100696.53
2023-01-07T10:17:22.141Z,100694.31
2023-01-07T10:19:56.965Z,100689.91
2023-01-07T10:22:32.298Z,100690.72
2023-01-07T10:25:07.463Z,100688.16
2023-01-07T10:27:40.176Z,100676.91
2023-01-07T10:30:14.690Z,100676.06
2023-01-07T10:32:43.658Z,100670.47
2023-01-07T10:35:18.635Z,100673.16
2023-01-07T10:37:47.281Z,100672.66
2023-01-07T10:40:29.544Z,100660.09
2023-01-07T10:43:03.014Z,100654.16
2023-01-07T10:46:15.656Z,100659.47
2023-01-07T10:49:17.086Z,100652.91
2023-01-07T10:51:53.761Z,100652.06
2023-01-07T10:54:49.151Z,100645.31
2023-01-07T10:57:22.311Z,100651.97
2023-01-07T10:59:52.291Z,100648.28
2023-01-07T11:02:23.471Z,100644.19
2023-01-07T11:04:52.227Z,100642.38
2023-01-07T11:07:30.115Z,100645.69
2023-01-07T11:10:02.034Z,100655.09
2023-01-07T11:12:37.325Z,100646.91
2023-01-07T11:15:09.481Z,100646.34
2023-01-07T11:17:41.874Z,100641.69
2023-01-07T11:20:12.456Z,100646.44
2023-01-07T11:22:41.286Z,100644.81
2023-01-07T11:25:30.030Z,100643.41
2023-01-07T11:28:03.566Z,100649.78
2023-01-07T11:30:34.229Z,100637.13
2023-01-07T11:33:05.575Z,100629.13
2023-01-07T11:35:34.924Z,100630.41
2023-01-07T11:38:03.887Z,100633.63
2023-01-07T11:40:33.612Z,100630.63
2023-01-07T11:43:05.436Z,100626.22
2023-01-07T11:45:37.869Z,100620.31
2023-01-07T11:48:09.945Z,100625.66
2023-01-07T11:50:40.232Z,100622.72
2023-01-07T11:53:12.774Z,100612.75
2023-01-07T11:55:41.892Z,100603.31
2023-01-07T11:58:27.781Z,100598.63
2023-01-07T12:01:15.535Z,100593.69
2023-01-07T12:03:45.786Z,100594.66
2023-01-07T12:06:20.295Z,100582.66
2023-01-07T12:08:55.368Z,100577.16
2023-01-07T12:11:31.556Z,100575.28
2023-01-07T12:14:05.698Z,100573.88
2023-01-07T12:16:35.153Z,100574.75
2023-01-07T12:19:18.653Z,100576.75
2023-01-07T12:21:55.559Z,100572.84
2023-01-07T12:24:48.456Z,100579.63
2023-01-07T12:27:27.588Z,100582.19
2023-01-07T12:30:09.106Z,100584.59
2023-01-07T12:32:48.004Z,100587.84
2023-01-07T12:35:20.446Z,100591.97
2023-01-07T12:37:53.284Z,100589.19
2023-01-07T12:40:28.685Z,100594.13
2023-01-07T12:43:02.613Z,100594.72
2023-01-07T12:45:36.611Z,100591.72
2023-01-07T12:48:08.463Z,100594.47
2023-01-07T12:50:42.485Z,100589.78
2023-01-07T12:53:14.504Z,100590.69
2023-01-07T12:55:45.670Z,100582.88
2023-01-07T12:58:20.329Z,100579.25
2023-01-07T13:00:54.317Z,100573.59
2023-01-07T13:03:39.368Z,100573.97
2023-01-07T13:06:11.757Z,100572.94
2023-01-07T13:08:44.992Z,100571.84
2023-01-07T13:11:41.619Z,100577.59
2023-01-07T13:14:18.152Z,100580.72
2023-01-07T13:16:48.648Z,100583.72
2023-01-07T13:19:17.833Z,100594.63
2023-01-07T13:21:48.859Z,100585.59
2023-01-07T13:24:56.513Z,100592.81
2023-01-07T13:27:30.367Z,100599.94
2023-01-07T13:30:18.439Z,100585.81
2023-01-07T13:32:59.344Z,100598.13
2023-01-07T13:35:50.130Z,100598.28
2023-01-07T13:38:24.547Z,100604.41
2023-01-07T13:41:08.147Z,100604.06
2023-01-07T13:44:01.868Z,100609.25
2023-01-07T13:46:33.526Z,100607.97
2023-01-07T13:49:04.141Z,100612.56
2023-01-07T13:51:34.964Z,100611.81
2023-01-07T13:54:04.194Z,100610.47
2023-01-07T13:56:40.688Z,100613.00
2023-01-07T13:59:49.218Z,100612.25
2023-01-07T14:02:21.383Z,100620.88
2023-01-07T14:04:53.245Z,100619.25
2023-01-07T14:07:22.189Z,100616.94
2023-01-07T14:09:51.159Z,100624.91
2023-01-07T14:12:53.468Z,100622.66
2023-01-07T14:15:45.762Z,100626.63
2023-01-07T14:18:57.240Z,100633.97
2023-01-07T14:21:44.736Z,100639.19
2023-01-07T14:24:35.002Z,100638.88
2023-01-07T14:27:12.699Z,100642.00
2023-01-07T14:29:43.446Z,100645.97
2023-01-07T14:32:31.253Z,100637.53
2023-01-07T14:35:02.436Z,100645.06
2023-01-07T14:37:37.712Z,100649.56
2023-01-07T14:40:42.953Z,100638.88
2023-01-07T14:43:49.979Z,100639.22
2023-01-07T14:47:01.119Z,100632.53
2023-01-07T14:49:56.414Z,100632.97
2023-01-07T14:53:05.497Z,100637.88
2023-01-07T14:55:52.835Z,100644.41
2023-01-07T14:58:49.950Z,100644.00
2023-01-07T15:01:34.922Z,100646.25
2023-01-07T15:04:26.131Z,100641.50
2023-01-07T15:06:57.273Z,100649.44
2023-01-07T15:09:46.841Z,100646.63
2023-01-07T15:12:48.395Z,100653.22
2023-01-07T15:15:39.771Z,100649.56
2023-01-07T15:18:09.570Z,100647.81
2023-01-07T15:20:48.634Z,100639.47
2023-01-07T15:23:23.373Z,100635.97
2023-01-07T15:25:57.620Z,100640.16
2023-01-07T15:28:37.265Z,100641.78
2023-01-07T15:31:11.286Z,100643.16
2023-01-07T15:33:54.793Z,100639.84
2023-01-07T15:36:24.082Z,100650.16
2023-01-07T15:38:54.687Z,100648.47
2023-01-07T15:41:29.911Z,100650.22
2023-01-07T15:44:01.287Z,100646.59
2023-01-07T15:46:31.867Z,100646.69
2023-01-07T15:49:11.010Z,100645.94
2023-01-07T15:51:41.508Z,100651.22
2023-01-07T15:54:24.724Z,100647.31
2023-01-07T15:56:55.796Z,100650.53
2023-01-07T15:59:28.572Z,100648.78
2023-01-07T16:02:06.187Z,100649.44
2023-01-07T16:04:38.372Z,100652.97
2023-01-07T16:07:07.451Z,100647.13
2023-01-07T16:09:36.385Z,100651.56
2023-01-07T16:12:21.011Z,100645.75
2023-01-07T16:14:51.498Z,100650.47
2023-01-07T16:17:20.957Z,100648.75
2023-01-07T16:19:49.573Z,100649.56
2023-01-07T16:22:20.817Z,100658.22
2023-01-07T16:24:51.440Z,100642.34
2023-01-07T16:27:24.858Z,100644.06
2023-01-07T16:29:58.302Z,100636.50
2023-01-07T16:32:27.381Z,100637.38
2023-01-07T16:35:01.897Z,100630.81
2023-01-07T16:37:31.424Z,100610.59
2023-01-07T16:40:00.702Z,100609.88
2023-01-07T16:42:29.776Z,100601.56
2023-01-07T16:45:02.389Z,100602.66
2023-01-07T16:47:32.557Z,100590.25
2023-01-07T16:50:36.406Z,100596.28
2023-01-07T16:53:05.470Z,100603.69
2023-01-07T16:55:55.492Z,100601.63
2023-01-07T16:58:29.285Z,100603.28
2023-01-07T17:01:01.197Z,100595.91
2023-01-07T17:03:31.202Z,100600.94
2023-01-07T17:06:02.760Z,100603.16
2023-01-07T17:08:33.478Z,100602.97
2023-01-07T17:11:06.010Z,100596.13
2023-01-07T17:13:37.279Z,100593.63
2023-01-07T17:16:31.609Z,100592.38
2023-01-07T17:19:24.679Z,100593.91
2023-01-07T17:21:54.231Z,100595.84
2023-01-07T17:24:48.452Z,100597.03
2023-01-07T17:27:25.414Z,100590.41
2023-01-07T17:29:54.804Z,100588.50
2023-01-07T17:32:25.537Z,100589.16
2023-01-07T17:34:54.103Z,100589.97
2023-01-07T17:37:23.063Z,100586.88
2023-01-07T17:39:52.054Z,100590.81
2023-01-07T17:42:39.838Z,100589.47
2023-01-07T17:45:11.455Z,100587.75
2023-01-07T17:47:41.865Z,100593.00
2023-01-07T17:50:13.256Z,100601.47
2023-01-07T17:52:43.577Z,100590.66
2023-01-07T17:55:16.398Z,100590.63
2023-01-07T17:57:45.489Z,100586.66
2023-01-07T18:00:17.362Z,100598.22
2023-01-07T18:02:47.927Z,100586.19
2023-01-07T18:05:19.102Z,100581.41
2023-01-07T18:07:48.187Z,100579.09
2023-01-07T18:10:18.919Z,100577.81
2023-01-07T18:12:47.128Z,100575.34
2023-01-07T18:15:19.468Z,100573.63
2023-01-07T18:17:49.946Z,100567.44
2023-01-07T18:20:19.835Z,100567.34
2023-01-07T18:22:48.918Z,100563.50
2023-01-07T18:25:20.265Z,100573.78
2023-01-07T18:27:52.829Z,100576.94
2023-01-07T18:30:23.323Z,100576.38
2023-01-07T18:32:53.898Z,100574.91
2023-01-07T18:35:23.901Z,100574.31
2023-01-07T18:37:52.802Z,100571.47
2023-01-07T18:40:21.945Z,100569.56
2023-01-07T18:42:50.871Z,100573.44
2023-01-07T18:45:20.129Z,100576.53
2023-01-07T18:47:49.609Z,100575.44
2023-01-07T18:50:20.197Z,100567.13
2023-01-07T18:52:48.909Z,100588.09
2023-01-07T18:55:19.597Z,100574.84
2023-01-07T18:57:48.658Z,100569.13
2023-01-07T19:00:18.476Z,100571.38
2023-01-07T19:02:47.461Z,100564.94
2023-01-07T19:05:16.529Z,100581.38
2023-01-07T19:07:46.603Z,100558.56
2023-01-07T19:10:15.706Z,100559.63
2023-01-07T19:12:44.695Z,100559.66
2023-01-07T19:15:13.744Z,100552.69
2023-01-07T19:17:42.744Z,100550.38
2023-01-07T19:20:15.194Z,100556.94
2023-01-07T19:22:44.249Z,100558.13
2023-01-07T19:25:14.744Z,100550.97
2023-01-07T19:27:43.981Z,100557.50
2023-01-07T19:30:14.020Z,100568.34
2023-01-07T19:32:43.082Z,100556.34
2023-01-07T19:35:12.174Z,100559.38
2023-01-07T19:37:41.062Z,100547.09
2023-01-07T19:40:12.513Z,100554.19
2023-01-07T19:42:43.132Z,100557.69
2023-01-07T19:45:12.556Z,100555.06
2023-01-07T19:47:42.000Z,100558.13
2023-01-07T19:50:11.381Z,100557.97
2023-01-07T19:52:40.052Z,100551.56
2023-01-07T19:55:09.659Z,100548.94
2023-01-07T19:57:38.589Z,100541.13
2023-01-07T20:00:10.943Z,100540.47
2023-01-07T20:02:40.147Z,100545.59
2023-01-07T20:05:09.896Z,100540.13
2023-01-07T20:07:38.725Z,100541.84
2023-01-07T20:10:08.882Z,100536.38
2023-01-07T20:12:38.115Z,100532.50
2023-01-07T20:15:10.260Z,100529.59
2023-01-07T20:17:39.420Z,100524.69
2023-01-07T20:20:10.004Z,100521.94
2023-01-07T20:22:39.950Z,100519.41
2023-01-07T20:25:10.248Z,100525.69
2023-01-07T20:27:39.316Z,100522.22
2023-01-07T20:30:11.302Z,100521.75
2023-01-07T20:32:40.288Z,100528.03
2023-01-07T20:35:10.653Z,100525.28
2023-01-07T20:37:41.814Z,100513.97
2023-01-07T20:40:12.553Z,100523.31
2023-01-07T20:42:41.699Z,100516.50
2023-01-07T20:45:13.201Z,100515.50
2023-01-07T20:47:42.320Z,100519.00
2023-01-07T20:50:15.397Z,100524.69
2023-01-07T20:52:44.179Z,100519.69
2023-01-07T20:55:13.260Z,100518.25
2023-01-07T20:57:42.414Z,100514.63
2023-01-07T21:00:14.237Z,100519.13
2023-01-07T21:02:43.622Z,100519.50
2023-01-07T21:05:12.929Z,100513.09
2023-01-07T21:07:43.507Z,100510.75
2023-01-07T21:10:12.815Z,100510.91
2023-01-07T21:12:43.266Z,100523.44
2023-01-07T21:15:15.817Z,100523.06
2023-01-07T21:17:47.501Z,100521.22
2023-01-07T21:20:17.281Z,100519.22
2023-01-07T21:22:47.654Z,100516.66
2023-01-07T21:25:16.955Z,100522.06
2023-01-07T21:27:48.610Z,100518.16
2023-01-07T21:30:19.703Z,100510.38
2023-01-07T21:32:49.641Z,100506.44
2023-01-07T21:35:18.859Z,100509.38
2023-01-07T21:37:47.536Z,100510.97
2023-01-07T21:40:16.608Z,100511.75
2023-01-07T21:42:45.553Z,100515.00
2023-01-07T21:45:14.722Z,100511.16
2023-01-07T21:47:45.447Z,100510.31
2023-01-07T21:50:15.158Z,100507.69
2023-01-07T21:52:44.156Z,100512.34
2023-01-07T21:55:13.104Z,100512.28
2023-01-07T21:57:42.129Z,100509.63
2023-01-07T22:00:12.305Z,100503.91
2023-01-07T22:02:41.265Z,100517.31
2023-01-07T22:05:12.120Z,100506.69
2023-01-07T22:07:40.998Z,100502.94
2023-01-07T22:10:11.384Z,100509.00
2023-01-07T22:12:40.325Z,100506.25
2023-01-07T22:15:09.885Z,100499.47
2023-01-07T22:17:38.889Z,100505.69
2023-01-07T22:20:09.677Z,100496.03
2023-01-07T22:22:39.488Z,100495.06
2023-01-07T22:25:09.697Z,100493.97
2023-01-07T22:27:38.640Z,100504.56
2023-01-07T22:30:09.206Z,100496.44
2023-01-07T22:32:38.191Z,100492.34
2023-01-07T22:35:07.703Z,100492.47
2023-01-07T22:37:36.614Z,100499.91
2023-01-07T22:40:08.408Z,100500.72
2023-01-07T22:42:40.515Z,100504.63
2023-01-07T22:45:12.196Z,100502.69
2023-01-07T22:47:44.088Z,100495.03
2023-01-07T22:50:14.675Z,100494.41
2023-01-07T22:52:43.099Z,100491.41
2023-01-07T22:55:14.255Z,100501.16
2023-01-07T22:57:43.419Z,100496.94
2023-01-07T23:00:38.248Z,100490.59
2023-01-07T23:03:07.272Z,100484.34
2023-01-07T23:05:37.964Z,100492.16
2023-01-07T23:08:08.245Z,100478.44
2023-01-07T23:10:38.913Z,100471.81
2023-01-07T23:13:08.507Z,100482.78
2023-01-07T23:15:38.869Z,100483.31
2023-01-07T23:18:09.693Z,100474.78
2023-01-07T23:20:40.535Z,100466.50
2023-01-07T23:23:09.998Z,100479.16
2023-01-07T23:25:45.736Z,100464.91
2023-01-07T23:28:14.898Z,100473.84
2023-01-07T23:30:44.145Z,100477.66
2023-01-07T23:33:13.314Z,100469.84
2023-01-07T23:35:42.329Z,100467.25
2023-01-07T23:38:11.290Z,100459.66
2023-01-07T23:40:41.558Z,100456.50
2023-01-07T23:43:10.503Z,100458.53
2023-01-07T23:45:39.509Z,100452.97
2023-01-07T23:48:08.609Z,100449.06
2023-01-07T23:50:37.612Z,100448.59
2023-01-07T23:53:06.610Z,100454.69
2023-01-07T23:55:35.170Z,100445.81
2023-01-07T23:58:05.645Z,100441.28
